createdAt,value
2018-05-18T00:00:14.016Z,17.30
2018-05-18T00:01:14.165Z,17.00
2018-05-18T00:02:14.317Z,17.70
2018-05-18T00:03:14.472Z,16.90
2018-05-18T00:04:14.621Z,16.60
2018-05-18T00:05:14.774Z,15.70
2018-05-18T00:06:14.925Z,21.00
2018-05-18T00:07:15.077Z,17.40
2018-05-18T00:08:15.230Z,18.40
2018-05-18T00:09:15.379Z,16.70
2018-05-18T00:10:15.533Z,15.60
2018-05-18T00:11:15.685Z,18.00
2018-05-18T00:12:15.835Z,14.30
2018-05-18T00:13:15.993Z,18.60
2018-05-18T00:14:16.141Z,18.60
2018-05-18T00:15:16.290Z,21.10
2018-05-18T00:16:16.440Z,17.60
2018-05-18T00:17:16.594Z,19.10
2018-05-18T00:18:16.745Z,17.40
2018-05-18T00:19:16.897Z,13.70
2018-05-18T00:20:17.039Z,18.70
2018-05-18T00:21:17.189Z,17.60
2018-05-18T00:22:17.341Z,18.20
2018-05-18T00:23:17.492Z,17.50
2018-05-18T00:24:17.644Z,16.50
2018-05-18T00:25:17.800Z,17.40
2018-05-18T00:26:17.950Z,16.00
2018-05-18T00:27:18.099Z,17.80
2018-05-18T00:28:18.255Z,14.60
2018-05-18T00:29:18.404Z,15.90
2018-05-18T00:30:18.554Z,16.20
2018-05-18T00:31:18.719Z,17.70
2018-05-18T00:32:18.852Z,16.20
2018-05-18T00:33:19.007Z,13.40
2018-05-18T00:34:19.157Z,18.80
2018-05-18T00:35:19.310Z,15.60
2018-05-18T00:36:19.458Z,20.30
2018-05-18T00:37:19.619Z,16.50
2018-05-18T00:38:19.766Z,15.60
2018-05-18T00:39:19.937Z,15.00
2018-05-18T00:40:20.069Z,14.50
2018-05-18T00:41:20.213Z,15.30
2018-05-18T00:42:20.371Z,16.20
2018-05-18T00:43:20.527Z,14.60
2018-05-18T00:44:20.679Z,16.70
2018-05-18T00:45:20.827Z,15.20
2018-05-18T00:46:20.981Z,14.00
2018-05-18T00:47:21.132Z,16.80
2018-05-18T00:48:21.277Z,16.00
2018-05-18T00:49:21.430Z,13.20
2018-05-18T00:50:21.584Z,14.40
2018-05-18T00:51:21.732Z,15.50
2018-05-18T00:52:21.888Z,14.50
2018-05-18T00:53:22.038Z,16.30
2018-05-18T00:54:22.191Z,14.20
2018-05-18T00:55:22.343Z,12.30
2018-05-18T00:56:22.494Z,15.00
2018-05-18T00:57:22.645Z,16.70
2018-05-18T00:58:22.794Z,15.30
2018-05-18T00:59:22.949Z,16.50
2018-05-18T01:00:23.100Z,14.80
2018-05-18T01:01:23.250Z,17.30
2018-05-18T01:02:23.402Z,15.20
2018-05-18T01:03:23.553Z,11.80
2018-05-18T01:04:23.783Z,16.00
2018-05-18T01:05:23.856Z,17.60
2018-05-18T01:06:24.015Z,16.50
2018-05-18T01:07:24.159Z,15.20
2018-05-18T01:08:24.314Z,14.20
2018-05-18T01:09:24.469Z,16.50
2018-05-18T01:10:24.620Z,19.30
2018-05-18T01:11:24.773Z,15.00
2018-05-18T01:12:24.924Z,16.90
2018-05-18T01:13:25.076Z,12.90
2018-05-18T01:14:25.227Z,14.30
2018-05-18T01:15:25.380Z,14.20
2018-05-18T01:16:25.533Z,14.70
2018-05-18T01:17:25.685Z,16.00
2018-05-18T01:18:25.835Z,15.90
2018-05-18T01:19:25.990Z,17.30
2018-05-18T01:20:26.140Z,17.10
2018-05-18T01:21:26.295Z,17.30
2018-05-18T01:22:26.441Z,14.20
2018-05-18T01:23:26.598Z,15.10
2018-05-18T01:24:26.748Z,16.20
2018-05-18T01:25:26.899Z,17.90
2018-05-18T01:26:27.050Z,16.60
2018-05-18T01:27:27.203Z,18.10
2018-05-18T01:28:27.354Z,15.20
2018-05-18T01:29:27.507Z,17.30
2018-05-18T01:30:27.657Z,15.60
2018-05-18T01:31:27.808Z,18.90
2018-05-18T01:32:27.961Z,15.60
2018-05-18T01:33:28.118Z,16.40
2018-05-18T01:34:28.264Z,15.20
2018-05-18T01:35:28.416Z,17.40
2018-05-18T01:36:28.565Z,17.50
2018-05-18T01:37:28.709Z,18.50
2018-05-18T01:38:28.863Z,18.20
2018-05-18T01:39:29.014Z,15.60
2018-05-18T01:40:29.166Z,17.90
2018-05-18T01:41:29.317Z,19.10
2018-05-18T01:42:29.471Z,15.90
2018-05-18T01:43:29.620Z,15.20
2018-05-18T01:44:29.771Z,17.70
2018-05-18T01:45:29.922Z,14.80
2018-05-18T01:46:30.073Z,16.30
2018-05-18T01:47:30.224Z,14.70
2018-05-18T01:48:30.371Z,15.10
2018-05-18T01:49:30.544Z,14.10
2018-05-18T01:50:30.696Z,14.80
2018-05-18T01:51:30.845Z,15.00
2018-05-18T01:52:30.996Z,16.10
2018-05-18T01:53:31.150Z,16.20
2018-05-18T01:54:31.301Z,19.40
2018-05-18T01:55:31.451Z,14.60
2018-05-18T01:56:31.602Z,15.30
2018-05-18T01:57:31.754Z,16.00
2018-05-18T01:58:31.905Z,15.80
2018-05-18T01:59:32.060Z,14.00
2018-05-18T02:00:32.210Z,19.60
2018-05-18T02:01:32.360Z,16.80
2018-05-18T02:02:32.510Z,14.00
2018-05-18T02:03:32.664Z,16.80
2018-05-18T02:04:32.815Z,17.20
2018-05-18T02:05:32.963Z,13.70
2018-05-18T02:06:33.115Z,14.70
2018-05-18T02:07:33.266Z,11.90
2018-05-18T02:08:33.416Z,14.10
2018-05-18T02:09:33.570Z,15.20
2018-05-18T02:10:33.721Z,15.10
2018-05-18T02:11:33.876Z,14.10
2018-05-18T02:12:34.028Z,13.50
2018-05-18T02:13:34.180Z,14.40
2018-05-18T02:14:34.331Z,16.20
2018-05-18T02:15:34.486Z,16.00
2018-05-18T02:16:34.634Z,16.20
2018-05-18T02:17:34.788Z,16.00
2018-05-18T02:18:34.941Z,14.90
2018-05-18T02:19:35.092Z,16.10
2018-05-18T02:20:35.243Z,16.00
2018-05-18T02:21:35.395Z,16.30
2018-05-18T02:22:35.548Z,15.10
2018-05-18T02:23:35.697Z,18.10
2018-05-18T02:24:35.850Z,17.30
2018-05-18T02:25:36.004Z,17.40
2018-05-18T02:26:36.155Z,14.30
2018-05-18T02:27:36.307Z,11.90
2018-05-18T02:28:36.461Z,13.90
2018-05-18T02:29:36.613Z,17.40
2018-05-18T02:30:36.762Z,17.60
2018-05-18T02:31:36.917Z,14.40
2018-05-18T02:32:37.069Z,14.40
2018-05-18T02:33:37.219Z,14.80
2018-05-18T02:34:37.370Z,17.50
2018-05-18T02:35:37.521Z,12.60
2018-05-18T02:36:37.679Z,17.00
2018-05-18T02:37:37.825Z,15.60
2018-05-18T02:38:37.976Z,17.20
2018-05-18T02:39:38.129Z,15.00
2018-05-18T02:40:38.286Z,13.70
2018-05-18T02:41:38.437Z,16.10
2018-05-18T02:42:38.589Z,14.40
2018-05-18T02:43:38.741Z,14.90
2018-05-18T02:44:38.892Z,13.80
2018-05-18T02:45:39.045Z,14.80
2018-05-18T02:46:39.196Z,15.30
2018-05-18T02:47:39.353Z,15.10
2018-05-18T02:48:39.502Z,14.40
2018-05-18T02:49:39.657Z,15.90
2018-05-18T02:50:39.803Z,16.20
2018-05-18T02:51:39.953Z,13.90
2018-05-18T02:52:40.106Z,16.20
2018-05-18T02:53:40.258Z,19.20
2018-05-18T02:54:40.411Z,17.20
2018-05-18T02:55:40.561Z,17.40
2018-05-18T02:56:40.713Z,20.50
2018-05-18T02:57:40.862Z,15.60
2018-05-18T02:58:41.019Z,18.10
2018-05-18T02:59:41.171Z,15.30
2018-05-18T03:00:41.321Z,15.80
2018-05-18T03:01:41.480Z,18.10
2018-05-18T03:02:41.627Z,13.80
2018-05-18T03:03:41.786Z,16.70
2018-05-18T03:04:41.933Z,17.40
2018-05-18T03:05:42.083Z,15.40
2018-05-18T03:06:42.254Z,16.10
2018-05-18T03:07:42.386Z,14.00
2018-05-18T03:08:42.540Z,16.90
2018-05-18T03:09:42.695Z,15.00
2018-05-18T03:10:42.844Z,14.40
2018-05-18T03:11:42.999Z,14.30
2018-05-18T03:12:43.150Z,15.50
2018-05-18T03:13:43.304Z,14.80
2018-05-18T03:14:43.451Z,12.20
2018-05-18T03:15:43.603Z,13.00
2018-05-18T03:16:43.758Z,12.90
2018-05-18T03:17:43.909Z,12.90
2018-05-18T03:18:44.061Z,13.70
2018-05-18T03:19:44.218Z,15.00
2018-05-18T03:20:44.432Z,13.90
2018-05-18T03:21:44.521Z,11.20
2018-05-18T03:22:44.673Z,13.80
2018-05-18T03:23:44.825Z,13.10
2018-05-18T03:24:44.973Z,12.50
2018-05-18T03:25:45.129Z,15.30
2018-05-18T03:26:45.280Z,12.10
2018-05-18T03:27:45.489Z,11.30
2018-05-18T03:28:45.583Z,11.60
2018-05-18T03:29:45.733Z,14.50
2018-05-18T03:30:45.884Z,11.30
2018-05-18T03:31:46.039Z,11.40
2018-05-18T03:32:46.191Z,13.70
2018-05-18T03:33:46.340Z,12.90
2018-05-18T03:34:46.498Z,16.10
2018-05-18T03:35:46.646Z,14.70
2018-05-18T03:36:46.795Z,11.60
2018-05-18T03:37:46.946Z,13.70
2018-05-18T03:38:47.097Z,13.30
2018-05-18T03:39:47.254Z,12.20
2018-05-18T03:40:47.400Z,15.80
2018-05-18T03:41:47.551Z,13.90
2018-05-18T03:42:47.703Z,15.80
2018-05-18T03:43:47.855Z,12.40
2018-05-18T03:44:48.005Z,13.60
2018-05-18T03:45:48.159Z,16.30
2018-05-18T03:46:48.310Z,14.50
2018-05-18T03:47:48.462Z,13.40
2018-05-18T03:48:48.616Z,13.00
2018-05-18T03:49:48.778Z,13.90
2018-05-18T03:50:48.922Z,16.50
2018-05-18T03:51:49.073Z,16.30
2018-05-18T03:52:49.224Z,15.20
2018-05-18T03:53:49.375Z,15.60
2018-05-18T03:54:49.535Z,13.00
2018-05-18T03:55:49.686Z,14.50
2018-05-18T03:56:49.837Z,14.60
2018-05-18T03:57:49.990Z,16.80
2018-05-18T03:58:50.145Z,13.80
2018-05-18T03:59:50.300Z,14.90
2018-05-18T04:00:50.450Z,16.50
2018-05-18T04:01:50.602Z,16.90
2018-05-18T04:02:50.754Z,14.20
2018-05-18T04:03:50.906Z,14.20
2018-05-18T04:04:51.058Z,14.70
2018-05-18T04:05:51.211Z,15.10
2018-05-18T04:06:51.386Z,16.10
2018-05-18T04:07:51.589Z,14.60
2018-05-18T04:08:51.675Z,16.70
2018-05-18T04:09:51.844Z,15.60
2018-05-18T04:10:51.979Z,14.40
2018-05-18T04:11:52.128Z,17.00
2018-05-18T04:12:52.281Z,16.40
2018-05-18T04:13:52.438Z,15.60
2018-05-18T04:14:52.591Z,13.00
2018-05-18T04:15:52.739Z,14.70
2018-05-18T04:16:52.888Z,18.30
2018-05-18T04:17:53.040Z,15.40
2018-05-18T04:18:53.192Z,12.00
2018-05-18T04:19:53.420Z,15.30
2018-05-18T04:20:53.497Z,14.70
2018-05-18T04:21:53.684Z,17.00
2018-05-18T04:22:53.819Z,14.40
2018-05-18T04:23:53.972Z,14.10
2018-05-18T04:24:54.130Z,13.30
2018-05-18T04:25:54.282Z,12.70
2018-05-18T04:26:54.430Z,15.40
2018-05-18T04:27:54.588Z,15.00
2018-05-18T04:28:54.738Z,14.60
2018-05-18T04:29:54.892Z,14.10
2018-05-18T04:30:55.045Z,15.80
2018-05-18T04:31:55.202Z,10.90
2018-05-18T04:32:55.381Z,14.60
2018-05-18T04:33:55.508Z,13.10
2018-05-18T04:34:55.774Z,12.30
2018-05-18T04:35:55.852Z,14.00
2018-05-18T04:36:55.970Z,12.30
2018-05-18T04:37:56.265Z,11.10
2018-05-18T04:38:56.523Z,14.00
2018-05-18T04:39:56.359Z,11.20
2018-05-18T04:40:56.511Z,12.30
2018-05-18T04:41:56.661Z,16.80
2018-05-18T04:42:56.805Z,15.70
2018-05-18T04:43:56.968Z,13.60
2018-05-18T04:44:57.117Z,16.60
2018-05-18T04:45:57.271Z,12.10
2018-05-18T04:46:57.428Z,14.60
2018-05-18T04:47:57.578Z,13.40
2018-05-18T04:48:57.727Z,13.60
2018-05-18T04:49:57.879Z,13.60
2018-05-18T04:50:58.067Z,13.80
2018-05-18T04:51:58.182Z,13.60
2018-05-18T04:52:58.337Z,12.90
2018-05-18T04:53:58.486Z,13.70
2018-05-18T04:54:58.631Z,12.30
2018-05-18T04:55:58.788Z,14.10
2018-05-18T04:56:58.937Z,12.40
2018-05-18T04:57:59.102Z,12.20
2018-05-18T04:58:59.251Z,10.80
2018-05-18T04:59:59.410Z,12.30
2018-05-18T05:00:59.554Z,11.80
2018-05-18T05:01:59.705Z,14.30
2018-05-18T05:02:59.830Z,12.60
2018-05-18T05:03:59.983Z,12.50
2018-05-18T05:05:00.137Z,11.30
2018-05-18T05:06:00.281Z,13.00
2018-05-18T05:07:00.440Z,12.20
2018-05-18T05:08:00.584Z,10.60
2018-05-18T05:09:00.733Z,12.10
2018-05-18T05:10:00.972Z,13.70
2018-05-18T05:11:01.045Z,13.60
2018-05-18T05:12:01.192Z,11.90
2018-05-18T05:13:01.339Z,11.70
2018-05-18T05:14:01.486Z,9.90
2018-05-18T05:15:01.658Z,13.60
2018-05-18T05:16:01.783Z,12.30
2018-05-18T05:17:01.938Z,14.60
2018-05-18T05:18:02.096Z,14.30
2018-05-18T05:19:02.233Z,13.30
2018-05-18T05:20:02.383Z,14.90
2018-05-18T05:21:02.537Z,12.20
2018-05-18T05:22:02.688Z,12.80
2018-05-18T05:23:02.840Z,12.70
2018-05-18T05:24:02.990Z,15.30
2018-05-18T05:25:03.145Z,14.70
2018-05-18T05:26:03.294Z,15.30
2018-05-18T05:27:03.449Z,13.40
2018-05-18T05:28:03.601Z,12.30
2018-05-18T05:29:03.754Z,14.40
2018-05-18T05:30:03.903Z,11.90
2018-05-18T05:31:04.055Z,14.00
2018-05-18T05:32:04.210Z,13.40
2018-05-18T05:33:04.358Z,11.80
2018-05-18T05:34:04.513Z,14.10
2018-05-18T05:35:04.663Z,15.20
2018-05-18T05:36:04.817Z,13.60
2018-05-18T05:37:04.968Z,12.50
2018-05-18T05:38:05.119Z,14.00
2018-05-18T05:39:05.272Z,17.50
2018-05-18T05:40:05.423Z,14.90
2018-05-18T05:41:05.581Z,13.40
2018-05-18T05:42:05.721Z,14.00
2018-05-18T05:43:05.875Z,14.60
2018-05-18T05:44:06.029Z,15.50
2018-05-18T05:45:06.181Z,15.20
2018-05-18T05:46:06.333Z,15.30
2018-05-18T05:47:06.482Z,13.80
2018-05-18T05:48:06.636Z,15.00
2018-05-18T05:49:06.787Z,12.60
2018-05-18T05:50:06.947Z,16.90
2018-05-18T05:51:07.091Z,15.30
2018-05-18T05:52:07.251Z,11.60
2018-05-18T05:53:07.397Z,14.30
2018-05-18T05:54:07.547Z,13.00
2018-05-18T05:55:07.697Z,13.80
2018-05-18T05:56:07.860Z,12.10
2018-05-18T05:57:08.002Z,13.00
2018-05-18T05:58:08.152Z,15.00
2018-05-18T05:59:08.306Z,11.00
2018-05-18T06:00:08.461Z,12.80
2018-05-18T06:01:08.692Z,11.20
2018-05-18T06:02:08.766Z,12.40
2018-05-18T06:03:08.916Z,10.40
2018-05-18T06:04:09.066Z,10.80
2018-05-18T06:05:09.218Z,16.70
2018-05-18T06:06:09.370Z,14.60
2018-05-18T06:07:09.524Z,10.10
2018-05-18T06:08:09.679Z,11.70
2018-05-18T06:09:09.829Z,9.70
2018-05-18T06:10:09.979Z,10.80
2018-05-18T06:11:10.130Z,13.20
2018-05-18T06:12:10.291Z,10.00
2018-05-18T06:13:10.434Z,9.90
2018-05-18T06:14:10.589Z,9.30
2018-05-18T06:15:10.738Z,11.20
2018-05-18T06:16:10.890Z,10.30
2018-05-18T06:17:11.045Z,10.10
2018-05-18T06:18:11.200Z,11.30
2018-05-18T06:19:11.351Z,11.90
2018-05-18T06:20:11.506Z,11.20
2018-05-18T06:21:11.657Z,9.30
2018-05-18T06:22:11.802Z,11.00
2018-05-18T06:23:11.955Z,10.10
2018-05-18T06:24:12.105Z,10.70
2018-05-18T06:25:12.257Z,10.10
2018-05-18T06:26:12.413Z,12.00
2018-05-18T06:27:12.563Z,11.60
2018-05-18T06:28:12.715Z,10.30
2018-05-18T06:29:12.868Z,9.30
2018-05-18T06:30:13.022Z,9.30
2018-05-18T06:31:13.183Z,10.00
2018-05-18T06:32:13.339Z,11.30
2018-05-18T06:33:13.489Z,9.50
2018-05-18T06:34:13.643Z,9.40
2018-05-18T06:35:13.874Z,8.90
2018-05-18T06:36:13.947Z,9.20
2018-05-18T06:37:14.099Z,9.10
2018-05-18T06:38:14.251Z,9.50
2018-05-18T06:39:14.408Z,8.70
2018-05-18T06:40:14.559Z,10.20
2018-05-18T06:41:14.766Z,7.90
2018-05-18T06:42:14.865Z,9.30
2018-05-18T06:43:15.020Z,8.10
2018-05-18T06:44:15.172Z,8.40
2018-05-18T06:45:15.325Z,9.60
2018-05-18T06:46:15.482Z,9.60
2018-05-18T06:47:15.627Z,8.30
2018-05-18T06:48:15.782Z,10.10
2018-05-18T06:49:15.934Z,9.90
2018-05-18T06:50:16.086Z,9.60
2018-05-18T06:51:16.235Z,10.70
2018-05-18T06:52:16.389Z,11.40
2018-05-18T06:53:16.542Z,10.70
2018-05-18T06:54:16.692Z,8.90
2018-05-18T06:55:16.846Z,11.10
2018-05-18T06:56:16.995Z,11.30
2018-05-18T06:57:17.154Z,10.50
2018-05-18T06:58:17.301Z,9.60
2018-05-18T06:59:17.455Z,10.80
2018-05-18T07:00:17.606Z,9.80
2018-05-18T07:01:17.761Z,11.60
2018-05-18T07:02:17.914Z,12.10
2018-05-18T07:03:18.066Z,9.20
2018-05-18T07:04:18.223Z,10.50
2018-05-18T07:05:18.371Z,11.90
2018-05-18T07:06:18.528Z,10.80
2018-05-18T07:07:18.678Z,9.30
2018-05-18T07:08:18.831Z,11.00
2018-05-18T07:09:18.980Z,11.20
2018-05-18T07:10:19.133Z,9.80
2018-05-18T07:11:19.287Z,10.00
2018-05-18T07:12:19.441Z,10.40
2018-05-18T07:13:19.591Z,8.50
2018-05-18T07:14:19.745Z,10.80
2018-05-18T07:15:19.909Z,10.20
2018-05-18T07:16:20.047Z,10.40
2018-05-18T07:17:20.200Z,10.70
2018-05-18T07:18:20.349Z,10.60
2018-05-18T07:19:20.500Z,10.90
2018-05-18T07:20:20.658Z,8.80
2018-05-18T07:21:20.807Z,11.70
2018-05-18T07:22:20.960Z,9.40
2018-05-18T07:23:21.111Z,10.80
2018-05-18T07:24:21.265Z,10.00
2018-05-18T07:25:21.416Z,9.90
2018-05-18T07:26:21.566Z,11.90
2018-05-18T07:27:21.720Z,10.50
2018-05-18T07:28:21.871Z,10.10
2018-05-18T07:29:22.024Z,9.20
2018-05-18T07:30:22.174Z,10.70
2018-05-18T07:31:22.327Z,12.00
2018-05-18T07:32:22.477Z,9.70
2018-05-18T07:33:22.637Z,10.70
2018-05-18T07:34:22.783Z,11.10
2018-05-18T07:35:22.935Z,11.10
2018-05-18T07:36:23.087Z,8.80
2018-05-18T07:37:23.244Z,10.50
2018-05-18T07:38:23.395Z,11.10
2018-05-18T07:39:23.547Z,9.40
2018-05-18T07:40:23.699Z,7.50
2018-05-18T07:41:23.850Z,7.40
2018-05-18T07:42:24.006Z,10.60
2018-05-18T07:43:24.156Z,8.90
2018-05-18T07:44:24.309Z,9.00
2018-05-18T07:45:24.463Z,8.70
2018-05-18T07:46:24.615Z,8.10
2018-05-18T07:47:24.771Z,9.80
2018-05-18T07:48:24.926Z,9.90
2018-05-18T07:49:25.075Z,9.30
2018-05-18T07:50:25.228Z,8.40
2018-05-18T07:51:25.380Z,10.70
2018-05-18T07:52:25.532Z,9.50
2018-05-18T07:53:25.764Z,9.50
2018-05-18T07:54:25.844Z,7.90
2018-05-18T07:55:25.996Z,9.20
2018-05-18T07:56:26.157Z,7.80
2018-05-18T07:57:26.305Z,9.00
2018-05-18T07:58:26.459Z,8.80
2018-05-18T07:59:26.697Z,8.00
2018-05-18T08:00:26.758Z,9.60
2018-05-18T08:01:26.909Z,8.70
2018-05-18T08:02:27.065Z,8.40
2018-05-18T08:03:27.216Z,8.40
2018-05-18T08:04:27.372Z,9.40
2018-05-18T08:05:27.525Z,8.40
2018-05-18T08:06:27.678Z,8.90
2018-05-18T08:07:27.832Z,9.30
2018-05-18T08:08:27.984Z,10.00
2018-05-18T08:09:28.141Z,11.30
2018-05-18T08:10:28.294Z,10.20
2018-05-18T08:11:28.446Z,11.00
2018-05-18T08:12:28.600Z,11.20
2018-05-18T08:13:28.757Z,13.40
2018-05-18T08:14:28.910Z,12.00
2018-05-18T08:15:29.064Z,11.50
2018-05-18T08:16:29.217Z,13.50
2018-05-18T08:17:29.370Z,10.90
2018-05-18T08:18:29.524Z,10.40
2018-05-18T08:19:29.676Z,10.20
2018-05-18T08:20:29.835Z,11.70
2018-05-18T08:21:30.017Z,12.10
2018-05-18T08:22:30.134Z,10.30
2018-05-18T08:23:30.292Z,13.10
2018-05-18T08:24:30.446Z,10.80
2018-05-18T08:25:30.601Z,13.10
2018-05-18T08:26:30.752Z,12.70
2018-05-18T08:27:30.906Z,14.40
2018-05-18T08:28:31.060Z,17.70
2018-05-18T08:29:31.213Z,15.00
2018-05-18T08:30:31.367Z,15.80
2018-05-18T08:31:31.522Z,14.60
2018-05-18T08:32:31.676Z,14.40
2018-05-18T08:33:31.829Z,15.50
2018-05-18T08:34:31.981Z,15.30
2018-05-18T08:35:32.135Z,17.80
2018-05-18T08:36:32.293Z,17.70
2018-05-18T08:37:32.444Z,15.10
2018-05-18T08:38:32.596Z,15.20
2018-05-18T08:39:32.750Z,14.60
2018-05-18T08:40:32.902Z,15.20
2018-05-18T08:41:33.056Z,16.50
2018-05-18T08:42:33.206Z,16.60
2018-05-18T08:43:33.363Z,14.70
2018-05-18T08:44:33.514Z,14.80
2018-05-18T08:45:33.673Z,19.60
2018-05-18T08:46:33.823Z,16.30
2018-05-18T08:47:33.973Z,18.40
2018-05-18T08:48:34.126Z,16.20
2018-05-18T08:49:34.283Z,16.70
2018-05-18T08:50:34.433Z,14.80
2018-05-18T08:51:34.593Z,17.30
2018-05-18T08:52:34.743Z,15.70
2018-05-18T08:53:34.900Z,17.20
2018-05-18T08:54:35.055Z,19.30
2018-05-18T08:55:35.213Z,15.30
2018-05-18T08:56:35.359Z,15.60
2018-05-18T08:57:35.513Z,15.80
2018-05-18T08:58:35.668Z,15.80
2018-05-18T08:59:35.822Z,15.90
2018-05-18T09:00:35.986Z,14.10
2018-05-18T09:01:36.131Z,14.40
2018-05-18T09:02:36.281Z,14.40
2018-05-18T09:03:36.443Z,14.90
2018-05-18T09:04:36.595Z,16.20
2018-05-18T09:05:36.749Z,15.80
2018-05-18T09:06:36.905Z,18.50
2018-05-18T09:07:37.057Z,15.10
2018-05-18T09:08:37.211Z,14.90
2018-05-18T09:09:37.369Z,15.10
2018-05-18T09:10:37.521Z,19.10
2018-05-18T09:11:37.681Z,15.00
2018-05-18T09:12:37.836Z,15.30
2018-05-18T09:13:37.984Z,14.90
2018-05-18T09:14:38.139Z,14.40
2018-05-18T09:15:38.293Z,16.20
2018-05-18T09:16:38.446Z,16.70
2018-05-18T09:17:38.598Z,16.40
2018-05-18T09:18:38.751Z,15.20
2018-05-18T09:19:38.906Z,16.20
2018-05-18T09:20:39.061Z,14.80
2018-05-18T09:21:39.218Z,14.90
2018-05-18T09:22:39.367Z,15.60
2018-05-18T09:23:39.525Z,16.00
2018-05-18T09:24:39.676Z,13.60
2018-05-18T09:25:39.829Z,15.90
2018-05-18T09:26:39.987Z,14.40
2018-05-18T09:27:40.140Z,15.30
2018-05-18T09:28:40.293Z,17.40
2018-05-18T09:29:40.445Z,17.60
2018-05-18T09:30:40.604Z,18.20
2018-05-18T09:31:40.757Z,20.60
2018-05-18T09:32:40.912Z,18.20
2018-05-18T09:33:41.066Z,17.90
2018-05-18T09:34:41.220Z,17.10
2018-05-18T09:35:41.372Z,15.60
2018-05-18T09:36:41.525Z,20.10
2018-05-18T09:37:41.678Z,16.20
2018-05-18T09:38:41.831Z,15.80
2018-05-18T09:39:41.995Z,16.40
2018-05-18T09:40:42.139Z,17.40
2018-05-18T09:41:42.329Z,15.40
2018-05-18T09:42:42.456Z,14.70
2018-05-18T09:43:42.615Z,18.30
2018-05-18T09:44:42.766Z,18.10
2018-05-18T09:45:42.917Z,16.00
2018-05-18T09:46:43.070Z,15.40
2018-05-18T09:47:43.226Z,15.10
2018-05-18T09:48:43.379Z,14.30
2018-05-18T09:49:43.534Z,15.20
2018-05-18T09:50:43.688Z,15.90
2018-05-18T09:51:43.846Z,13.70
2018-05-18T09:52:43.998Z,13.50
2018-05-18T09:53:44.153Z,15.60
2018-05-18T09:54:44.441Z,15.90
2018-05-18T09:55:44.460Z,13.60
2018-05-18T09:56:44.615Z,13.60
2018-05-18T09:57:44.769Z,14.10
2018-05-18T09:58:44.931Z,13.90
2018-05-18T09:59:45.084Z,13.20
2018-05-18T10:00:45.260Z,16.20
2018-05-18T10:01:45.386Z,15.40
2018-05-18T10:02:45.547Z,14.00
2018-05-18T10:03:45.699Z,14.70
2018-05-18T10:04:45.854Z,17.60
2018-05-18T10:05:46.006Z,15.80
2018-05-18T10:06:46.161Z,14.80
2018-05-18T10:07:46.315Z,13.20
2018-05-18T10:08:46.468Z,15.40
2018-05-18T10:09:46.624Z,11.70
2018-05-18T10:10:46.782Z,15.30
2018-05-18T10:11:46.935Z,13.80
2018-05-18T10:12:47.088Z,12.90
2018-05-18T10:13:47.241Z,14.10
2018-05-18T10:14:47.395Z,14.90
2018-05-18T10:15:47.554Z,15.00
2018-05-18T10:16:47.707Z,12.70
2018-05-18T10:17:47.861Z,15.10
2018-05-18T10:18:48.015Z,13.00
2018-05-18T10:19:48.170Z,13.80
2018-05-18T10:20:48.325Z,14.00
2018-05-18T10:21:48.482Z,13.00
2018-05-18T10:22:48.635Z,14.20
2018-05-18T10:23:48.789Z,13.80
2018-05-18T10:24:48.945Z,13.40
2018-05-18T10:25:49.103Z,13.30
2018-05-18T10:26:49.258Z,14.40
2018-05-18T10:27:49.411Z,14.00
2018-05-18T10:28:49.567Z,12.50
2018-05-18T10:29:49.723Z,13.30
2018-05-18T10:30:49.877Z,14.40
2018-05-18T10:31:50.026Z,13.60
2018-05-18T10:32:50.186Z,13.70
2018-05-18T10:33:50.332Z,12.90
2018-05-18T10:34:50.486Z,13.00
2018-05-18T10:35:50.649Z,14.40
2018-05-18T10:36:50.804Z,15.00
2018-05-18T10:37:50.958Z,13.80
2018-05-18T10:38:51.115Z,14.10
2018-05-18T10:39:51.270Z,16.00
2018-05-18T10:40:51.423Z,15.10
2018-05-18T10:41:51.582Z,15.60
2018-05-18T10:42:51.732Z,14.10
2018-05-18T10:43:51.891Z,13.40
2018-05-18T10:44:52.046Z,11.40
2018-05-18T10:45:52.198Z,13.80
2018-05-18T10:46:52.355Z,12.10
2018-05-18T10:47:52.508Z,15.30
2018-05-18T10:48:52.667Z,12.10
2018-05-18T10:49:52.822Z,12.90
2018-05-18T10:50:52.978Z,14.80
2018-05-18T10:51:53.137Z,12.10
2018-05-18T10:52:53.289Z,14.60
2018-05-18T10:53:53.443Z,12.90
2018-05-18T10:54:53.600Z,14.00
2018-05-18T10:55:53.759Z,12.20
2018-05-18T10:56:53.912Z,15.20
2018-05-18T10:57:54.067Z,13.30
2018-05-18T10:58:54.227Z,15.40
2018-05-18T10:59:54.379Z,15.30
2018-05-18T11:00:54.541Z,11.60
2018-05-18T11:01:54.735Z,15.60
2018-05-18T11:02:54.862Z,14.70
2018-05-18T11:03:55.015Z,12.70
2018-05-18T11:04:55.170Z,14.70
2018-05-18T11:05:55.331Z,13.40
2018-05-18T11:06:55.486Z,13.80
2018-05-18T11:07:55.648Z,16.10
2018-05-18T11:08:55.804Z,17.40
2018-05-18T11:09:55.958Z,13.10
2018-05-18T11:10:56.116Z,13.60
2018-05-18T11:11:56.275Z,13.40
2018-05-18T11:12:56.432Z,14.00
2018-05-18T11:13:56.625Z,14.60
2018-05-18T11:14:56.745Z,14.40
2018-05-18T11:15:56.901Z,11.60
2018-05-18T11:16:57.056Z,11.90
2018-05-18T11:17:57.214Z,13.30
2018-05-18T11:18:57.367Z,13.00
2018-05-18T11:19:57.608Z,13.90
2018-05-18T11:20:57.681Z,13.00
2018-05-18T11:21:57.837Z,13.20
2018-05-18T11:22:57.994Z,11.10
2018-05-18T11:23:58.149Z,12.60
2018-05-18T11:24:58.305Z,12.90
2018-05-18T11:25:58.464Z,12.00
2018-05-18T11:26:58.619Z,14.80
2018-05-18T11:27:58.778Z,11.70
2018-05-18T11:28:58.934Z,11.60
2018-05-18T11:29:59.099Z,13.50
2018-05-18T11:30:59.250Z,14.10
2018-05-18T11:31:59.407Z,12.60
2018-05-18T11:32:59.633Z,13.20
2018-05-18T11:33:59.720Z,13.90
2018-05-18T11:34:59.876Z,13.10
2018-05-18T11:36:00.033Z,14.30
2018-05-18T11:37:00.191Z,14.60
2018-05-18T11:38:00.349Z,11.10
2018-05-18T11:39:00.509Z,12.40
2018-05-18T11:40:00.663Z,13.70
2018-05-18T11:41:00.819Z,12.70
2018-05-18T11:42:00.981Z,12.60
2018-05-18T11:43:01.137Z,12.20
2018-05-18T11:44:01.298Z,15.30
2018-05-18T11:45:01.455Z,13.20
2018-05-18T11:46:01.611Z,13.60
2018-05-18T11:47:01.767Z,11.60
2018-05-18T11:48:02.025Z,11.60
2018-05-18T11:49:02.097Z,12.80
2018-05-18T11:50:02.248Z,13.10
2018-05-18T11:51:02.407Z,14.40
2018-05-18T11:52:02.562Z,12.30
2018-05-18T11:53:02.717Z,12.30
2018-05-18T11:54:02.873Z,13.10
2018-05-18T11:55:03.032Z,11.50
2018-05-18T11:56:03.185Z,12.20
2018-05-18T11:57:03.341Z,10.50
2018-05-18T11:58:03.499Z,14.10
2018-05-18T11:59:03.655Z,12.40
2018-05-18T12:00:03.812Z,11.90
2018-05-18T12:01:03.966Z,12.30
2018-05-18T12:02:04.126Z,13.20
2018-05-18T12:03:04.283Z,11.40
2018-05-18T12:04:04.441Z,12.20
2018-05-18T12:05:04.601Z,11.80
2018-05-18T12:06:04.762Z,13.90
2018-05-18T12:07:04.916Z,13.90
2018-05-18T12:08:05.071Z,12.00
2018-05-18T12:09:05.226Z,11.70
2018-05-18T12:10:05.380Z,11.60
2018-05-18T12:11:05.542Z,9.30
2018-05-18T12:12:05.703Z,10.20
2018-05-18T12:13:05.863Z,9.30
2018-05-18T12:14:06.046Z,12.00
2018-05-18T12:15:06.214Z,12.30
2018-05-18T12:16:06.335Z,12.10
2018-05-18T12:17:06.491Z,9.50
2018-05-18T12:18:06.650Z,11.30
2018-05-18T12:19:06.805Z,10.10
2018-05-18T12:20:06.964Z,10.40
2018-05-18T12:21:07.119Z,10.50
2018-05-18T12:22:07.276Z,12.00
2018-05-18T12:23:07.432Z,11.80
2018-05-18T12:24:07.588Z,10.80
2018-05-18T12:25:07.744Z,12.00
2018-05-18T12:26:07.951Z,11.00
2018-05-18T12:27:08.062Z,11.10
2018-05-18T12:28:08.214Z,11.40
2018-05-18T12:29:08.381Z,11.90
2018-05-18T12:30:08.535Z,11.70
2018-05-18T12:31:08.697Z,10.10
2018-05-18T12:32:08.852Z,12.20
2018-05-18T12:33:09.015Z,9.80
2018-05-18T12:34:09.174Z,10.20
2018-05-18T12:35:09.329Z,10.50
2018-05-18T12:36:09.485Z,11.70
2018-05-18T12:37:09.642Z,10.90
2018-05-18T12:38:09.900Z,9.90
2018-05-18T12:39:09.958Z,12.70
2018-05-18T12:40:10.114Z,12.60
2018-05-18T12:41:10.272Z,11.30
2018-05-18T12:42:10.427Z,9.90
2018-05-18T12:43:10.587Z,13.00
2018-05-18T12:44:10.740Z,10.90
2018-05-18T12:45:10.899Z,9.00
2018-05-18T12:46:11.056Z,11.40
2018-05-18T12:47:11.217Z,11.20
2018-05-18T12:48:11.368Z,11.50
2018-05-18T12:49:11.526Z,10.60
2018-05-18T12:50:11.683Z,11.40
2018-05-18T12:51:11.837Z,13.80
2018-05-18T12:52:12.000Z,10.40
2018-05-18T12:53:12.155Z,12.20
2018-05-18T12:54:12.316Z,10.80
2018-05-18T12:55:12.494Z,11.10
2018-05-18T12:56:12.641Z,11.50